sensor_id;sensor_type;location;lat;lon;timestamp;pressure;altitude;pressure_sealevel;temperature;humidity
62791;BME280;48830;53.426;10.300;2023-02-15T00:01:39;102994.28;;;5.42;100.00
62791;BME280;48830;53.426;10.300;2023-02-15T00:04:06;102990.38;;;5.47;100.00
62791;BME280;48830;53.426;10.300;2023-02-15T00:06:32;102984.31;;;5.45;100.00
62791;BME280;48830;53.426;10.300;2023-02-15T00:08:58;102990.28;;;5.46;100.00
62791;BME280;48830;53.426;10.300;2023-02-15T00:11:24;102989.31;;;5.44;100.00
62791;BME280;48830;53.426;10.300;2023-02-15T00:16:40;102989.97;;;5.41;100.00
62791;BME280;48830;53.426;10.300;2023-02-15T00:19:07;102991.28;;;5.36;100.00
62791;BME280;48830;53.426;10.300;2023-02-15T00:21:33;102982.84;;;5.37;100.00
62791;BME280;48830;53.426;10.300;2023-02-15T00:24:00;102989.88;;;5.28;100.00
62791;BME280;48830;53.426;10.300;2023-02-15T00:26:26;102985.66;;;5.29;100.00
62791;BME280;48830;53.426;10.300;2023-02-15T00:28:52;102973.56;;;5.26;100.00
62791;BME280;48830;53.426;10.300;2023-02-15T00:31:18;102979.66;;;5.16;100.00
62791;BME280;48830;53.426;10.300;2023-02-15T00:33:44;102991.97;;;5.22;100.00
62791;BME280;48830;53.426;10.300;2023-02-15T00:36:10;102978.22;;;5.20;100.00
62791;BME280;48830;53.426;10.300;2023-02-15T00:38:36;102981.66;;;5.20;100.00
62791;BME280;48830;53.426;10.300;2023-02-15T00:41:03;102982.09;;;5.26;100.00
62791;BME280;48830;53.426;10.300;2023-02-15T00:43:30;102979.44;;;5.25;100.00
62791;BME280;48830;53.426;10.300;2023-02-15T00:45:56;102976.44;;;5.19;100.00
62791;BME280;48830;53.426;10.300;2023-02-15T00:48:23;102984.19;;;5.09;100.00
62791;BME280;48830;53.426;10.300;2023-02-15T00:50:50;102970.38;;;5.17;100.00
62791;BME280;48830;53.426;10.300;2023-02-15T00:53:16;102965.47;;;5.08;100.00
62791;BME280;48830;53.426;10.300;2023-02-15T00:55:41;102964.25;;;5.15;100.00
62791;BME280;48830;53.426;10.300;2023-02-15T00:58:08;102964.03;;;5.12;100.00
62791;BME280;48830;53.426;10.300;2023-02-15T01:00:34;102960.72;;;5.13;100.00
62791;BME280;48830;53.426;10.300;2023-02-15T01:03:00;102956.69;;;5.16;100.00
62791;BME280;48830;53.426;10.300;2023-02-15T01:05:25;102960.47;;;5.10;100.00
62791;BME280;48830;53.426;10.300;2023-02-15T01:07:51;102951.59;;;5.05;100.00
62791;BME280;48830;53.426;10.300;2023-02-15T01:10:16;102940.34;;;5.01;100.00
62791;BME280;48830;53.426;10.300;2023-02-15T01:12:42;102940.88;;;5.09;100.00
62791;BME280;48830;53.426;10.300;2023-02-15T01:15:08;102939.53;;;5.02;100.00
62791;BME280;48830;53.426;10.300;2023-02-15T01:17:33;102943.41;;;5.09;100.00
62791;BME280;48830;53.426;10.300;2023-02-15T01:19:59;102934.88;;;5.08;100.00
62791;BME280;48830;53.426;10.300;2023-02-15T01:22:24;102944.97;;;5.07;100.00
62791;BME280;48830;53.426;10.300;2023-02-15T01:24:50;102932.97;;;5.06;100.00
62791;BME280;48830;53.426;10.300;2023-02-15T01:27:16;102939.00;;;5.06;100.00
62791;BME280;48830;53.426;10.300;2023-02-15T01:29:42;102929.25;;;5.00;100.00
62791;BME280;48830;53.426;10.300;2023-02-15T01:32:08;102923.25;;;5.00;100.00
62791;BME280;48830;53.426;10.300;2023-02-15T01:34:33;102927.00;;;4.93;100.00
62791;BME280;48830;53.426;10.300;2023-02-15T01:36:59;102922.25;;;4.86;100.00
62791;BME280;48830;53.426;10.300;2023-02-15T01:39:24;102925.34;;;4.94;100.00
62791;BME280;48830;53.426;10.300;2023-02-15T01:41:50;102924.81;;;4.86;100.00
62791;BME280;48830;53.426;10.300;2023-02-15T01:47:12;102921.72;;;4.90;100.00
62791;BME280;48830;53.426;10.300;2023-02-15T01:49:39;102914.63;;;4.86;100.00
62791;BME280;48830;53.426;10.300;2023-02-15T01:52:09;102917.38;;;4.89;100.00
62791;BME280;48830;53.426;10.300;2023-02-15T01:54:37;102917.06;;;4.85;100.00
62791;BME280;48830;53.426;10.300;2023-02-15T01:57:13;102911.50;;;4.79;100.00
62791;BME280;48830;53.426;10.300;2023-02-15T01:59:43;102913.38;;;4.81;100.00
62791;BME280;48830;53.426;10.300;2023-02-15T02:02:13;102911.97;;;4.85;100.00
62791;BME280;48830;53.426;10.300;2023-02-15T02:04:48;102911.63;;;4.80;100.00
62791;BME280;48830;53.426;10.300;2023-02-15T02:07:21;102905.31;;;4.75;100.00
62791;BME280;48830;53.426;10.300;2023-02-15T02:09:48;102903.75;;;4.77;100.00
62791;BME280;48830;53.426;10.300;2023-02-15T02:12:15;102908.63;;;4.74;100.00
62791;BME280;48830;53.426;10.300;2023-02-15T02:14:42;102909.28;;;4.71;100.00
62791;BME280;48830;53.426;10.300;2023-02-15T02:23:35;102897.09;;;4.67;100.00
62791;BME280;48830;53.426;10.300;2023-02-15T02:34:37;102879.78;;;4.52;100.00
62791;BME280;48830;53.426;10.300;2023-02-15T02:40:04;102878.56;;;4.46;100.00
62791;BME280;48830;53.426;10.300;2023-02-15T02:42:42;102873.38;;;4.33;100.00
62791;BME280;48830;53.426;10.300;2023-02-15T02:45:40;102874.25;;;4.34;100.00
62791;BME280;48830;53.426;10.300;2023-02-15T02:48:11;102868.50;;;4.36;100.00
62791;BME280;48830;53.426;10.300;2023-02-15T02:50:40;102861.53;;;4.34;100.00
62791;BME280;48830;53.426;10.300;2023-02-15T02:53:06;102863.19;;;4.33;100.00
62791;BME280;48830;53.426;10.300;2023-02-15T02:56:03;102860.63;;;4.33;100.00
62791;BME280;48830;53.426;10.300;2023-02-15T03:01:03;102859.50;;;4.30;100.00
62791;BME280;48830;53.426;10.300;2023-02-15T03:03:37;102859.75;;;4.21;100.00
62791;BME280;48830;53.426;10.300;2023-02-15T03:06:13;102858.19;;;4.23;100.00
62791;BME280;48830;53.426;10.300;2023-02-15T03:08:48;102856.03;;;4.06;100.00
62791;BME280;48830;53.426;10.300;2023-02-15T03:11:16;102860.69;;;4.11;100.00
62791;BME280;48830;53.426;10.300;2023-02-15T03:13:43;102857.28;;;4.11;100.00
62791;BME280;48830;53.426;10.300;2023-02-15T03:16:11;102852.38;;;4.02;100.00
62791;BME280;48830;53.426;10.300;2023-02-15T03:18:58;102850.59;;;4.01;100.00
62791;BME280;48830;53.426;10.300;2023-02-15T03:21:42;102843.50;;;3.97;100.00
62791;BME280;48830;53.426;10.300;2023-02-15T03:24:18;102841.81;;;3.86;100.00
62791;BME280;48830;53.426;10.300;2023-02-15T03:26:49;102837.19;;;3.92;100.00
62791;BME280;48830;53.426;10.300;2023-02-15T03:29:17;102823.38;;;3.88;100.00
62791;BME280;48830;53.426;10.300;2023-02-15T03:31:46;102823.56;;;3.80;100.00
62791;BME280;48830;53.426;10.300;2023-02-15T03:34:17;102818.66;;;3.71;100.00
62791;BME280;48830;53.426;10.300;2023-02-15T03:42:44;102815.66;;;3.65;100.00
62791;BME280;48830;53.426;10.300;2023-02-15T03:45:11;102816.53;;;3.65;100.00
62791;BME280;48830;53.426;10.300;2023-02-15T03:47:45;102817.44;;;3.66;100.00
62791;BME280;48830;53.426;10.300;2023-02-15T03:50:24;102810.34;;;3.62;100.00
62791;BME280;48830;53.426;10.300;2023-02-15T03:53:14;102811.19;;;3.51;100.00
62791;BME280;48830;53.426;10.300;2023-02-15T03:55:40;102816.94;;;3.60;100.00
62791;BME280;48830;53.426;10.300;2023-02-15T03:58:06;102822.59;;;3.56;100.00
62791;BME280;48830;53.426;10.300;2023-02-15T04:01:04;102819.03;;;3.54;100.00
62791;BME280;48830;53.426;10.300;2023-02-15T04:03:59;102814.56;;;3.39;100.00
62791;BME280;48830;53.426;10.300;2023-02-15T04:06:25;102816.44;;;3.42;100.00
62791;BME280;48830;53.426;10.300;2023-02-15T04:08:50;102819.75;;;3.41;100.00
62791;BME280;48830;53.426;10.300;2023-02-15T04:11:34;102823.97;;;3.40;100.00
62791;BME280;48830;53.426;10.300;2023-02-15T04:14:00;102815.72;;;3.33;100.00
62791;BME280;48830;53.426;10.300;2023-02-15T04:16:45;102822.53;;;3.22;100.00
62791;BME280;48830;53.426;10.300;2023-02-15T04:19:10;102818.31;;;3.23;100.00
62791;BME280;48830;53.426;10.300;2023-02-15T04:21:54;102810.06;;;3.25;100.00
62791;BME280;48830;53.426;10.300;2023-02-15T04:24:38;102809.66;;;3.31;100.00
62791;BME280;48830;53.426;10.300;2023-02-15T04:27:22;102815.25;;;3.27;100.00
62791;BME280;48830;53.426;10.300;2023-02-15T04:29:47;102800.69;;;3.24;100.00
62791;BME280;48830;53.426;10.300;2023-02-15T04:32:15;102796.13;;;3.20;100.00
62791;BME280;48830;53.426;10.300;2023-02-15T04:34:40;102797.94;;;3.11;100.00
62791;BME280;48830;53.426;10.300;2023-02-15T04:37:06;102798.81;;;3.11;100.00
62791;BME280;48830;53.426;10.300;2023-02-15T04:39:31;102796.16;;;3.10;100.00
62791;BME280;48830;53.426;10.300;2023-02-15T04:41:57;102791.13;;;3.00;100.00
62791;BME280;48830;53.426;10.300;2023-02-15T04:44:23;102795.22;;;2.98;100.00
62791;BME280;48830;53.426;10.300;2023-02-15T04:46:48;102793.47;;;2.97;100.00
62791;BME280;48830;53.426;10.300;2023-02-15T04:49:14;102783.53;;;3.00;100.00
62791;BME280;48830;53.426;10.300;2023-02-15T04:51:40;102790.03;;;2.96;100.00
62791;BME280;48830;53.426;10.300;2023-02-15T04:54:05;102792.94;;;2.90;100.00
62791;BME280;48830;53.426;10.300;2023-02-15T04:56:31;102781.50;;;2.96;100.00
62791;BME280;48830;53.426;10.300;2023-02-15T04:58:58;102791.47;;;2.82;100.00
62791;BME280;48830;53.426;10.300;2023-02-15T05:01:23;102785.81;;;2.75;100.00
62791;BME280;48830;53.426;10.300;2023-02-15T05:03:49;102778.53;;;2.79;100.00
62791;BME280;48830;53.426;10.300;2023-02-15T05:06:14;102773.44;;;2.79;100.00
62791;BME280;48830;53.426;10.300;2023-02-15T05:08:40;102769.91;;;2.77;100.00
62791;BME280;48830;53.426;10.300;2023-02-15T05:11:05;102773.69;;;2.82;100.00
62791;BME280;48830;53.426;10.300;2023-02-15T05:13:31;102762.00;;;2.84;100.00
62791;BME280;48830;53.426;10.300;2023-02-15T05:15:56;102769.03;;;2.77;100.00
62791;BME280;48830;53.426;10.300;2023-02-15T05:18:21;102765.16;;;2.60;100.00
62791;BME280;48830;53.426;10.300;2023-02-15T05:20:48;102769.06;;;2.67;100.00
62791;BME280;48830;53.426;10.300;2023-02-15T05:23:13;102767.66;;;2.70;100.00
62791;BME280;48830;53.426;10.300;2023-02-15T05:25:39;102770.88;;;2.57;100.00
62791;BME280;48830;53.426;10.300;2023-02-15T05:28:26;102769.19;;;2.68;100.00
62791;BME280;48830;53.426;10.300;2023-02-15T05:33:29;102766.69;;;2.58;100.00
62791;BME280;48830;53.426;10.300;2023-02-15T05:35:54;102761.44;;;2.67;100.00
62791;BME280;48830;53.426;10.300;2023-02-15T05:38:20;102755.13;;;2.61;100.00
62791;BME280;48830;53.426;10.300;2023-02-15T05:40:45;102748.28;;;2.60;100.00
62791;BME280;48830;53.426;10.300;2023-02-15T05:43:11;102749.06;;;2.59;100.00
62791;BME280;48830;53.426;10.300;2023-02-15T05:45:36;102747.19;;;2.47;100.00
62791;BME280;48830;53.426;10.300;2023-02-15T05:48:02;102745.59;;;2.37;100.00
62791;BME280;48830;53.426;10.300;2023-02-15T05:50:27;102750.38;;;2.44;100.00
62791;BME280;48830;53.426;10.300;2023-02-15T05:52:53;102755.47;;;2.34;100.00
62791;BME280;48830;53.426;10.300;2023-02-15T05:55:18;102745.03;;;2.41;100.00
62791;BME280;48830;53.426;10.300;2023-02-15T05:57:44;102744.28;;;2.42;100.00
62791;BME280;48830;53.426;10.300;2023-02-15T06:00:10;102738.41;;;2.21;100.00
62791;BME280;48830;53.426;10.300;2023-02-15T06:02:39;102752.97;;;2.24;100.00
62791;BME280;48830;53.426;10.300;2023-02-15T06:05:05;102754.09;;;2.27;100.00
62791;BME280;48830;53.426;10.300;2023-02-15T06:07:31;102756.47;;;2.36;100.00
62791;BME280;48830;53.426;10.300;2023-02-15T06:09:56;102749.22;;;2.41;100.00
62791;BME280;48830;53.426;10.300;2023-02-15T06:12:22;102752.16;;;2.35;100.00
62791;BME280;48830;53.426;10.300;2023-02-15T06:14:47;102743.69;;;2.24;100.00
62791;BME280;48830;53.426;10.300;2023-02-15T06:17:13;102741.41;;;2.27;100.00
62791;BME280;48830;53.426;10.300;2023-02-15T06:19:38;102755.88;;;2.28;100.00
62791;BME280;48830;53.426;10.300;2023-02-15T06:22:04;102749.03;;;2.27;100.00
62791;BME280;48830;53.426;10.300;2023-02-15T06:24:31;102756.16;;;2.11;100.00
62791;BME280;48830;53.426;10.300;2023-02-15T06:26:57;102749.81;;;2.16;100.00
62791;BME280;48830;53.426;10.300;2023-02-15T06:29:22;102747.31;;;2.06;100.00
62791;BME280;48830;53.426;10.300;2023-02-15T06:31:47;102745.47;;;2.15;100.00
62791;BME280;48830;53.426;10.300;2023-02-15T06:34:13;102743.22;;;2.18;100.00
62791;BME280;48830;53.426;10.300;2023-02-15T06:36:38;102740.84;;;1.99;100.00
62791;BME280;48830;53.426;10.300;2023-02-15T06:39:04;102742.34;;;1.97;100.00
62791;BME280;48830;53.426;10.300;2023-02-15T06:41:29;102731.59;;;2.00;100.00
62791;BME280;48830;53.426;10.300;2023-02-15T06:43:55;102724.72;;;1.99;100.00
62791;BME280;48830;53.426;10.300;2023-02-15T06:46:21;102726.91;;;1.94;100.00
62791;BME280;48830;53.426;10.300;2023-02-15T06:48:46;102731.97;;;1.94;100.00
62791;BME280;48830;53.426;10.300;2023-02-15T06:51:12;102732.38;;;1.78;100.00
62791;BME280;48830;53.426;10.300;2023-02-15T06:53:37;102733.88;;;1.87;100.00
62791;BME280;48830;53.426;10.300;2023-02-15T06:56:04;102739.81;;;1.87;100.00
62791;BME280;48830;53.426;10.300;2023-02-15T06:58:35;102740.88;;;1.89;100.00
62791;BME280;48830;53.426;10.300;2023-02-15T07:01:01;102740.47;;;1.95;100.00
62791;BME280;48830;53.426;10.300;2023-02-15T07:03:27;102733.50;;;1.92;100.00
62791;BME280;48830;53.426;10.300;2023-02-15T07:05:56;102739.94;;;1.99;100.00
62791;BME280;48830;53.426;10.300;2023-02-15T07:08:23;102740.09;;;2.00;100.00
62791;BME280;48830;53.426;10.300;2023-02-15T07:10:50;102739.44;;;1.93;100.00
62791;BME280;48830;53.426;10.300;2023-02-15T07:13:16;102739.31;;;2.01;100.00
62791;BME280;48830;53.426;10.300;2023-02-15T07:15:41;102736.41;;;1.97;100.00
62791;BME280;48830;53.426;10.300;2023-02-15T07:18:06;102741.19;;;2.04;100.00
62791;BME280;48830;53.426;10.300;2023-02-15T07:20:32;102732.31;;;2.09;100.00
62791;BME280;48830;53.426;10.300;2023-02-15T07:23:01;102743.50;;;2.11;100.00
62791;BME280;48830;53.426;10.300;2023-02-15T07:25:26;102736.00;;;2.02;100.00
62791;BME280;48830;53.426;10.300;2023-02-15T07:27:59;102726.34;;;2.08;100.00
62791;BME280;48830;53.426;10.300;2023-02-15T07:30:26;102726.63;;;2.01;100.00
62791;BME280;48830;53.426;10.300;2023-02-15T07:32:56;102731.94;;;2.04;100.00
62791;BME280;48830;53.426;10.300;2023-02-15T07:35:49;102725.25;;;2.05;100.00
62791;BME280;48830;53.426;10.300;2023-02-15T07:38:16;102717.34;;;2.12;100.00
62791;BME280;48830;53.426;10.300;2023-02-15T07:40:42;102714.41;;;2.18;100.00
62791;BME280;48830;53.426;10.300;2023-02-15T07:43:08;102721.66;;;2.13;100.00
62791;BME280;48830;53.426;10.300;2023-02-15T07:45:33;102719.50;;;2.18;100.00
62791;BME280;48830;53.426;10.300;2023-02-15T07:48:01;102713.03;;;2.21;100.00
62791;BME280;48830;53.426;10.300;2023-02-15T07:50:26;102716.28;;;2.20;100.00
62791;BME280;48830;53.426;10.300;2023-02-15T07:52:52;102702.00;;;2.21;100.00
62791;BME280;48830;53.426;10.300;2023-02-15T07:55:17;102700.97;;;2.19;100.00
62791;BME280;48830;53.426;10.300;2023-02-15T07:57:45;102700.59;;;2.14;100.00
62791;BME280;48830;53.426;10.300;2023-02-15T08:00:13;102701.38;;;2.03;100.00
62791;BME280;48830;53.426;10.300;2023-02-15T08:02:39;102697.28;;;2.15;100.00
62791;BME280;48830;53.426;10.300;2023-02-15T08:05:05;102706.66;;;2.26;100.00
62791;BME280;48830;53.426;10.300;2023-02-15T08:07:31;102706.53;;;2.15;100.00
62791;BME280;48830;53.426;10.300;2023-02-15T08:09:57;102713.50;;;2.27;100.00
62791;BME280;48830;53.426;10.300;2023-02-15T08:12:26;102707.66;;;2.28;100.00
62791;BME280;48830;53.426;10.300;2023-02-15T08:14:51;102706.00;;;2.29;100.00
62791;BME280;48830;53.426;10.300;2023-02-15T08:17:17;102699.16;;;2.28;100.00
62791;BME280;48830;53.426;10.300;2023-02-15T08:19:43;102695.72;;;2.38;100.00
62791;BME280;48830;53.426;10.300;2023-02-15T08:22:12;102698.06;;;2.46;100.00
62791;BME280;48830;53.426;10.300;2023-02-15T08:24:39;102690.94;;;2.52;100.00
62791;BME280;48830;53.426;10.300;2023-02-15T08:27:10;102692.63;;;2.42;100.00
62791;BME280;48830;53.426;10.300;2023-02-15T08:29:37;102689.41;;;2.54;100.00
62791;BME280;48830;53.426;10.300;2023-02-15T08:32:08;102686.69;;;2.63;100.00
62791;BME280;48830;53.426;10.300;2023-02-15T08:34:39;102677.16;;;2.71;100.00
62791;BME280;48830;53.426;10.300;2023-02-15T08:37:05;102678.25;;;2.74;100.00
62791;BME280;48830;53.426;10.300;2023-02-15T08:39:31;102683.47;;;2.76;100.00
62791;BME280;48830;53.426;10.300;2023-02-15T08:41:56;102686.16;;;2.67;100.00
62791;BME280;48830;53.426;10.300;2023-02-15T08:44:22;102680.22;;;2.67;100.00
62791;BME280;48830;53.426;10.300;2023-02-15T08:46:49;102691.03;;;2.64;100.00
62791;BME280;48830;53.426;10.300;2023-02-15T08:49:17;102679.06;;;2.63;100.00
62791;BME280;48830;53.426;10.300;2023-02-15T08:51:44;102671.81;;;2.68;100.00
62791;BME280;48830;53.426;10.300;2023-02-15T08:54:12;102673.38;;;2.66;100.00
62791;BME280;48830;53.426;10.300;2023-02-15T08:56:41;102676.25;;;2.70;100.00
62791;BME280;48830;53.426;10.300;2023-02-15T08:59:10;102681.09;;;2.67;100.00
62791;BME280;48830;53.426;10.300;2023-02-15T09:01:36;102683.63;;;2.67;100.00
62791;BME280;48830;53.426;10.300;2023-02-15T09:04:07;102677.38;;;2.74;100.00
62791;BME280;48830;53.426;10.300;2023-02-15T09:06:40;102668.34;;;2.77;100.00
62791;BME280;48830;53.426;10.300;2023-02-15T09:09:06;102663.72;;;2.83;100.00
62791;BME280;48830;53.426;10.300;2023-02-15T09:11:38;102667.56;;;2.78;100.00
62791;BME280;48830;53.426;10.300;2023-02-15T09:14:09;102662.13;;;2.74;100.00
62791;BME280;48830;53.426;10.300;2023-02-15T09:16:36;102667.72;;;2.80;100.00
62791;BME280;48830;53.426;10.300;2023-02-15T09:19:03;102663.00;;;2.74;100.00
62791;BME280;48830;53.426;10.300;2023-02-15T09:21:35;102655.53;;;2.76;100.00
62791;BME280;48830;53.426;10.300;2023-02-15T09:24:03;102658.91;;;2.86;100.00
62791;BME280;48830;53.426;10.300;2023-02-15T09:26:31;102658.06;;;2.98;100.00
62791;BME280;48830;53.426;10.300;2023-02-15T09:28:59;102662.81;;;3.05;100.00
62791;BME280;48830;53.426;10.300;2023-02-15T09:31:31;102653.88;;;3.10;100.00
62791;BME280;48830;53.426;10.300;2023-02-15T09:33:58;102655.97;;;3.04;100.00
62791;BME280;48830;53.426;10.300;2023-02-15T09:36:36;102653.84;;;2.98;100.00
62791;BME280;48830;53.426;10.300;2023-02-15T09:39:15;102647.25;;;3.12;100.00
62791;BME280;48830;53.426;10.300;2023-02-15T09:52:39;102663.81;;;3.40;100.00
62791;BME280;48830;53.426;10.300;2023-02-15T09:57:59;102657.94;;;3.41;100.00
62791;BME280;48830;53.426;10.300;2023-02-15T10:11:36;102656.75;;;3.60;100.00
62791;BME280;48830;53.426;10.300;2023-02-15T10:17:37;102658.66;;;3.51;100.00
62791;BME280;48830;53.426;10.300;2023-02-15T10:25:41;102665.16;;;3.71;100.00
62791;BME280;48830;53.426;10.300;2023-02-15T10:28:50;102662.88;;;3.85;100.00
62791;BME280;48830;53.426;10.300;2023-02-15T10:31:37;102653.66;;;3.87;100.00
62791;BME280;48830;53.426;10.300;2023-02-15T10:39:45;102657.25;;;3.78;100.00
62791;BME280;48830;53.426;10.300;2023-02-15T10:45:23;102643.06;;;4.05;100.00
62791;BME280;48830;53.426;10.300;2023-02-15T10:53:19;102642.41;;;3.95;100.00
62791;BME280;48830;53.426;10.300;2023-02-15T10:56:24;102639.31;;;4.00;100.00
62791;BME280;48830;53.426;10.300;2023-02-15T11:01:44;102640.75;;;3.96;100.00
62791;BME280;48830;53.426;10.300;2023-02-15T11:04:37;102640.72;;;4.19;100.00
62791;BME280;48830;53.426;10.300;2023-02-15T11:12:44;102627.84;;;4.41;100.00
62791;BME280;48830;53.426;10.300;2023-02-15T11:17:56;102628.06;;;4.44;100.00
62791;BME280;48830;53.426;10.300;2023-02-15T11:20:34;102626.47;;;4.46;100.00
62791;BME280;48830;53.426;10.300;2023-02-15T11:23:01;102616.38;;;4.60;100.00
62791;BME280;48830;53.426;10.300;2023-02-15T11:25:32;102617.50;;;4.52;100.00
62791;BME280;48830;53.426;10.300;2023-02-15T11:28:00;102624.94;;;4.48;100.00
62791;BME280;48830;53.426;10.300;2023-02-15T11:30:40;102608.97;;;4.63;100.00
62791;BME280;48830;53.426;10.300;2023-02-15T11:33:16;102606.75;;;4.56;100.00
62791;BME280;48830;53.426;10.300;2023-02-15T11:35:58;102603.22;;;4.54;100.00
62791;BME280;48830;53.426;10.300;2023-02-15T11:38:28;102601.50;;;4.66;100.00
62791;BME280;48830;53.426;10.300;2023-02-15T11:41:01;102604.88;;;4.78;100.00
62791;BME280;48830;53.426;10.300;2023-02-15T11:43:59;102591.88;;;4.73;100.00
62791;BME280;48830;53.426;10.300;2023-02-15T11:46:23;102598.66;;;4.86;100.00
62791;BME280;48830;53.426;10.300;2023-02-15T11:48:49;102589.91;;;4.83;100.00
62791;BME280;48830;53.426;10.300;2023-02-15T11:51:17;102581.81;;;4.88;100.00
62791;BME280;48830;53.426;10.300;2023-02-15T11:53:45;102573.81;;;4.95;100.00
62791;BME280;48830;53.426;10.300;2023-02-15T11:56:19;102575.81;;;5.13;100.00
62791;BME280;48830;53.426;10.300;2023-02-15T11:58:58;102575.72;;;5.38;100.00
62791;BME280;48830;53.426;10.300;2023-02-15T12:01:31;102561.63;;;5.56;100.00
62791;BME280;48830;53.426;10.300;2023-02-15T12:03:58;102562.88;;;5.36;100.00
62791;BME280;48830;53.426;10.300;2023-02-15T12:06:30;102551.50;;;5.71;100.00
62791;BME280;48830;53.426;10.300;2023-02-15T12:11:45;102556.63;;;5.71;100.00
62791;BME280;48830;53.426;10.300;2023-02-15T12:14:12;102545.28;;;6.07;100.00
62791;BME280;48830;53.426;10.300;2023-02-15T12:21:53;102561.25;;;6.89;100.00
62791;BME280;48830;53.426;10.300;2023-02-15T12:24:25;102561.88;;;6.99;100.00
62791;BME280;48830;53.426;10.300;2023-02-15T12:27:02;102567.47;;;7.22;100.00
62791;BME280;48830;53.426;10.300;2023-02-15T12:29:50;102548.91;;;7.55;100.00
62791;BME280;48830;53.426;10.300;2023-02-15T12:34:51;102539.44;;;8.16;100.00
62791;BME280;48830;53.426;10.300;2023-02-15T12:37:23;102540.03;;;9.10;100.00
62791;BME280;48830;53.426;10.300;2023-02-15T12:39:57;102531.44;;;8.27;100.00
62791;BME280;48830;53.426;10.300;2023-02-15T12:42:24;102529.19;;;8.33;100.00
62791;BME280;48830;53.426;10.300;2023-02-15T12:45:24;102521.75;;;9.76;100.00
62791;BME280;48830;53.426;10.300;2023-02-15T12:50:40;102511.13;;;9.68;100.00
62791;BME280;48830;53.426;10.300;2023-02-15T12:58:23;102507.88;;;8.83;100.00
62791;BME280;48830;53.426;10.300;2023-02-15T13:03:34;102493.81;;;11.88;94.27
62791;BME280;48830;53.426;10.300;2023-02-15T13:06:01;102485.91;;;11.38;90.53
62791;BME280;48830;53.426;10.300;2023-02-15T13:08:30;102491.06;;;10.96;93.70
62791;BME280;48830;53.426;10.300;2023-02-15T13:11:08;102500.38;;;10.52;98.64
62791;BME280;48830;53.426;10.300;2023-02-15T13:14:01;102501.09;;;10.11;100.00
62791;BME280;48830;53.426;10.300;2023-02-15T13:16:38;102492.25;;;10.05;100.00
62791;BME280;48830;53.426;10.300;2023-02-15T13:19:39;102491.97;;;9.98;100.00
62791;BME280;48830;53.426;10.300;2023-02-15T13:22:10;102493.56;;;11.37;95.38
62791;BME280;48830;53.426;10.300;2023-02-15T13:24:43;102496.56;;;12.39;88.17
62791;BME280;48830;53.426;10.300;2023-02-15T13:27:20;102495.50;;;13.35;82.09
62791;BME280;48830;53.426;10.300;2023-02-15T13:29:50;102486.84;;;13.62;79.05
62791;BME280;48830;53.426;10.300;2023-02-15T13:34:54;102482.59;;;11.86;85.99
62791;BME280;48830;53.426;10.300;2023-02-15T13:37:32;102473.47;;;11.28;89.87
62791;BME280;48830;53.426;10.300;2023-02-15T13:40:08;102471.38;;;11.40;90.56
62791;BME280;48830;53.426;10.300;2023-02-15T13:42:40;102468.06;;;12.35;85.96
62791;BME280;48830;53.426;10.300;2023-02-15T13:53:56;102463.59;;;12.55;81.77
62791;BME280;48830;53.426;10.300;2023-02-15T14:17:45;102437.81;;;9.19;100.00
62791;BME280;48830;53.426;10.300;2023-02-15T14:25:41;102447.28;;;9.95;100.00
62791;BME280;48830;53.426;10.300;2023-02-15T14:28:14;102436.50;;;11.03;96.30
62791;BME280;48830;53.426;10.300;2023-02-15T14:30:46;102432.09;;;11.91;89.41
62791;BME280;48830;53.426;10.300;2023-02-15T14:36:01;102429.09;;;12.02;84.77
62791;BME280;48830;53.426;10.300;2023-02-15T14:41:19;102417.53;;;12.41;82.65
62791;BME280;48830;53.426;10.300;2023-02-15T14:46:36;102421.66;;;13.15;81.75
62791;BME280;48830;53.426;10.300;2023-02-15T14:49:14;102430.63;;;12.72;82.74
62791;BME280;48830;53.426;10.300;2023-02-15T14:54:11;102425.69;;;11.57;88.87
62791;BME280;48830;53.426;10.300;2023-02-15T15:00:22;102428.38;;;11.38;91.87
62791;BME280;48830;53.426;10.300;2023-02-15T15:02:18;102416.31;;;11.14;94.70
62791;BME280;48830;53.426;10.300;2023-02-15T15:07:26;102415.69;;;11.42;92.28
62791;BME280;48830;53.426;10.300;2023-02-15T15:12:55;102415.41;;;11.81;90.12
62791;BME280;48830;53.426;10.300;2023-02-15T15:20:48;102407.97;;;11.20;93.87
62791;BME280;48830;53.426;10.300;2023-02-15T15:25:46;102418.44;;;10.39;100.00
62791;BME280;48830;53.426;10.300;2023-02-15T15:31:27;102417.94;;;9.90;100.00
62791;BME280;48830;53.426;10.300;2023-02-15T15:37:12;102414.91;;;9.60;100.00
62791;BME280;48830;53.426;10.300;2023-02-15T15:50:53;102414.81;;;8.67;100.00
62791;BME280;48830;53.426;10.300;2023-02-15T15:53:24;102420.63;;;8.47;100.00
62791;BME280;48830;53.426;10.300;2023-02-15T15:55:54;102409.03;;;8.37;100.00
62791;BME280;48830;53.426;10.300;2023-02-15T15:58:22;102409.44;;;8.29;100.00
62791;BME280;48830;53.426;10.300;2023-02-15T16:00:56;102398.78;;;8.21;100.00
62791;BME280;48830;53.426;10.300;2023-02-15T16:03:26;102402.72;;;8.14;100.00
62791;BME280;48830;53.426;10.300;2023-02-15T16:05:52;102390.88;;;8.00;100.00
62791;BME280;48830;53.426;10.300;2023-02-15T16:08:40;102380.34;;;7.94;100.00
62791;BME280;48830;53.426;10.300;2023-02-15T16:11:38;102390.75;;;7.81;100.00
62791;BME280;48830;53.426;10.300;2023-02-15T16:16:51;102389.78;;;7.62;100.00